createdAt,value
2018-09-04T00:00:14.549Z,16.77
2018-09-04T00:02:44.128Z,16.78
2018-09-04T00:05:13.352Z,16.81
2018-09-04T00:07:42.492Z,16.77
2018-09-04T00:10:11.956Z,16.75
2018-09-04T00:12:41.637Z,16.72
2018-09-04T00:15:10.832Z,16.74
2018-09-04T00:17:40.940Z,16.69
2018-09-04T00:20:10.148Z,16.71
2018-09-04T00:22:39.349Z,16.67
2018-09-04T00:25:08.580Z,16.66
2018-09-04T00:27:38.547Z,16.66
2018-09-04T00:30:08.216Z,16.67
2018-09-04T00:32:37.336Z,16.49
2018-09-04T00:35:06.813Z,16.43
2018-09-04T00:37:35.971Z,16.43
2018-09-04T00:40:06.340Z,16.41
2018-09-04T00:42:35.488Z,16.37
2018-09-04T00:45:04.808Z,16.35
2018-09-04T00:47:34.117Z,16.37
2018-09-04T00:50:03.240Z,16.33
2018-09-04T00:52:32.512Z,16.26
2018-09-04T00:55:01.680Z,16.31
2018-09-04T00:57:30.880Z,16.25
2018-09-04T01:00:00.608Z,16.17
2018-09-04T01:02:29.792Z,16.14
2018-09-04T01:04:58.955Z,16.13
2018-09-04T01:07:28.080Z,16.13
2018-09-04T01:09:57.272Z,16.11
2018-09-04T01:12:26.512Z,16.01
2018-09-04T01:14:58.274Z,15.91
2018-09-04T01:17:27.480Z,15.87
2018-09-04T01:19:56.608Z,15.88
2018-09-04T01:22:26.060Z,15.86
2018-09-04T01:24:55.232Z,15.79
2018-09-04T01:27:24.328Z,15.78
2018-09-04T01:29:53.496Z,15.74
2018-09-04T01:32:22.603Z,15.73
2018-09-04T01:34:51.631Z,15.72
2018-09-04T01:37:20.783Z,15.67
2018-09-04T01:39:49.904Z,15.66
2018-09-04T01:42:19.296Z,15.63
2018-09-04T01:44:48.628Z,15.64
2018-09-04T01:47:17.757Z,15.66
2018-09-04T01:49:46.928Z,15.63
2018-09-04T01:52:16.292Z,15.65
2018-09-04T01:54:45.645Z,15.63
2018-09-04T01:57:14.776Z,15.65
2018-09-04T01:59:43.880Z,15.64
2018-09-04T02:02:14.276Z,15.56
2018-09-04T02:04:43.420Z,15.52
2018-09-04T02:07:12.744Z,15.46
2018-09-04T02:09:41.904Z,15.45
2018-09-04T02:12:11.094Z,15.38
2018-09-04T02:14:40.352Z,15.16
2018-09-04T02:17:09.844Z,14.95
2018-09-04T02:19:38.940Z,14.96
2018-09-04T02:22:08.140Z,14.97
2018-09-04T02:24:37.540Z,15.02
2018-09-04T02:27:06.712Z,14.98
2018-09-04T02:29:35.783Z,15.03
2018-09-04T02:32:04.887Z,15.05
2018-09-04T02:34:34.076Z,15.03
2018-09-04T02:37:03.300Z,15.05
2018-09-04T02:39:32.384Z,15.09
2018-09-04T02:42:01.476Z,15.07
2018-09-04T02:44:30.909Z,15.13
2018-09-04T02:47:00.068Z,15.08
2018-09-04T02:49:29.266Z,15.11
2018-09-04T02:51:58.471Z,15.07
2018-09-04T02:54:27.580Z,15.09
2018-09-04T02:56:56.697Z,15.02
2018-09-04T02:59:26.493Z,15.01
2018-09-04T03:01:55.676Z,14.98
2018-09-04T03:04:25.292Z,14.97
2018-09-04T03:06:54.992Z,14.92
2018-09-04T03:09:24.083Z,14.86
2018-09-04T03:11:53.520Z,14.84
2018-09-04T03:14:22.892Z,14.79
2018-09-04T03:16:51.976Z,14.71
2018-09-04T03:19:21.071Z,14.71
2018-09-04T03:21:50.213Z,14.69
2018-09-04T03:24:19.413Z,14.66
2018-09-04T03:26:48.468Z,14.70
2018-09-04T03:29:17.556Z,14.65
2018-09-04T03:31:47.684Z,14.68
2018-09-04T03:34:16.884Z,14.66
2018-09-04T03:36:46.116Z,14.59
2018-09-04T03:39:15.700Z,14.65
2018-09-04T03:41:45.129Z,14.69
2018-09-04T03:44:14.614Z,14.68
2018-09-04T03:46:43.688Z,14.65
2018-09-04T03:49:12.924Z,14.57
2018-09-04T03:51:42.328Z,14.55
2018-09-04T03:54:11.487Z,14.53
2018-09-04T03:56:40.696Z,14.55
2018-09-04T03:59:09.888Z,14.54
2018-09-04T04:01:39.128Z,14.33
2018-09-04T04:04:08.193Z,14.41
2018-09-04T04:06:37.253Z,14.46
2018-09-04T04:09:09.172Z,14.49
2018-09-04T04:11:38.240Z,14.51
2018-09-04T04:14:07.888Z,14.56
2018-09-04T04:16:36.971Z,14.61
2018-09-04T04:19:06.130Z,14.65
2018-09-04T04:21:35.323Z,14.65
2018-09-04T04:24:04.450Z,14.70
2018-09-04T04:26:33.656Z,14.75
2018-09-04T04:29:02.844Z,14.79
2018-09-04T04:31:32.332Z,14.83
2018-09-04T04:34:01.560Z,14.87
2018-09-04T04:36:30.672Z,14.92
2018-09-04T04:38:59.756Z,14.93
2018-09-04T04:41:29.152Z,14.92
2018-09-04T04:43:58.320Z,14.93
2018-09-04T04:46:27.464Z,14.95
2018-09-04T04:48:56.840Z,14.95
2018-09-04T04:51:26.016Z,14.95
2018-09-04T04:53:55.206Z,14.67
2018-09-04T04:56:24.312Z,14.74
2018-09-04T04:58:54.548Z,14.81
2018-09-04T05:01:23.961Z,14.85
2018-09-04T05:03:53.086Z,14.89
2018-09-04T05:06:22.221Z,14.92
2018-09-04T05:08:51.367Z,14.99
2018-09-04T05:11:21.495Z,15.03
2018-09-04T05:13:51.296Z,15.12
2018-09-04T05:16:20.729Z,15.09
2018-09-04T05:18:50.881Z,15.14
2018-09-04T05:21:20.101Z,15.16
2018-09-04T05:23:49.159Z,15.20
2018-09-04T05:26:18.238Z,15.26
2018-09-04T05:28:47.699Z,15.30
2018-09-04T05:31:17.745Z,15.37
2018-09-04T05:33:47.620Z,15.39
2018-09-04T05:36:17.309Z,15.47
2018-09-04T05:38:46.613Z,15.44
2018-09-04T05:41:16.500Z,15.56
2018-09-04T05:43:50.258Z,15.67
2018-09-04T05:46:35.068Z,15.62
2018-09-04T05:49:04.164Z,15.71
2018-09-04T05:51:33.391Z,15.87
2018-09-04T05:54:02.889Z,16.01
2018-09-04T05:56:32.072Z,16.16
2018-09-04T05:59:01.288Z,16.29
2018-09-04T06:01:30.662Z,16.37
2018-09-04T06:03:59.824Z,16.30
2018-09-04T06:06:29.880Z,16.40
2018-09-04T06:08:59.852Z,16.52
2018-09-04T06:11:29.097Z,16.61
2018-09-04T06:13:58.206Z,16.67
2018-09-04T06:16:28.413Z,16.74
2018-09-04T06:18:57.508Z,16.81
2018-09-04T06:21:26.748Z,16.89
2018-09-04T06:23:56.081Z,16.55
2018-09-04T06:26:25.143Z,16.69
2018-09-04T06:28:54.472Z,16.84
2018-09-04T06:31:23.805Z,17.02
2018-09-04T06:33:53.235Z,17.11
2018-09-04T06:36:23.341Z,17.09
2018-09-04T06:38:52.475Z,16.99
2018-09-04T06:41:21.624Z,17.05
2018-09-04T06:43:50.962Z,17.36
2018-09-04T06:46:20.078Z,17.44
2018-09-04T06:48:49.160Z,17.10
2018-09-04T06:51:18.466Z,16.84
2018-09-04T06:53:48.152Z,17.18
2018-09-04T06:56:17.287Z,17.29
2018-09-04T06:58:46.336Z,17.13
2018-09-04T07:01:15.560Z,17.77
2018-09-04T07:03:44.859Z,17.96
2018-09-04T07:06:14.032Z,18.36
2018-09-04T07:08:43.208Z,18.29
2018-09-04T07:11:12.780Z,18.14
2018-09-04T07:13:41.935Z,17.93
2018-09-04T07:16:11.134Z,17.74
2018-09-04T07:18:40.329Z,17.74
2018-09-04T07:21:10.587Z,17.88
2018-09-04T07:23:40.773Z,18.71
2018-09-04T07:26:09.944Z,19.34
2018-09-04T07:28:39.045Z,19.72
2018-09-04T07:31:09.122Z,19.91
2018-09-04T07:33:38.372Z,20.25
2018-09-04T07:36:08.024Z,20.30
2018-09-04T07:38:37.388Z,19.96
2018-09-04T07:41:06.589Z,19.85
2018-09-04T07:43:35.841Z,20.18
2018-09-04T07:46:05.076Z,20.41
2018-09-04T07:48:34.234Z,20.22
2018-09-04T07:51:03.380Z,20.27
2018-09-04T07:53:32.620Z,21.01
2018-09-04T07:56:03.300Z,20.65
2018-09-04T07:58:32.501Z,21.29
2018-09-04T08:01:01.844Z,22.84
2018-09-04T08:03:30.892Z,24.46
2018-09-04T08:06:00.129Z,25.73
2018-09-04T08:08:29.333Z,26.56
2018-09-04T08:10:58.829Z,27.31
2018-09-04T08:13:28.342Z,27.44
2018-09-04T08:15:58.450Z,27.89
2018-09-04T08:18:27.849Z,27.12
2018-09-04T08:20:57.748Z,27.35
2018-09-04T08:23:26.915Z,27.89
2018-09-04T08:25:56.981Z,28.53
2018-09-04T08:28:26.160Z,28.79
2018-09-04T08:30:56.206Z,30.48
2018-09-04T08:33:25.410Z,31.83
2018-09-04T08:35:54.804Z,31.61
2018-09-04T08:38:23.844Z,30.52
2018-09-04T08:40:55.212Z,31.28
2018-09-04T08:43:24.417Z,30.75
2018-09-04T08:45:54.436Z,31.88
2018-09-04T08:48:23.532Z,33.85
2018-09-04T08:50:52.873Z,35.06
2018-09-04T08:53:22.937Z,34.02
2018-09-04T08:55:52.552Z,31.64
2018-09-04T08:58:21.680Z,27.19
2018-09-04T09:00:51.009Z,27.57
2018-09-04T09:03:21.269Z,30.85
2018-09-04T09:05:54.814Z,33.91
2018-09-04T09:08:23.986Z,35.60
2018-09-04T09:10:53.157Z,36.69
2018-09-04T09:13:22.929Z,35.17
2018-09-04T09:15:54.256Z,36.07
2018-09-04T09:18:24.889Z,38.64
2018-09-04T09:20:54.609Z,40.29
2018-09-04T09:23:23.710Z,37.72
2018-09-04T09:25:56.064Z,36.19
2018-09-04T09:28:25.431Z,33.90
2018-09-04T09:30:54.561Z,31.46
2018-09-04T09:33:23.703Z,33.50
2018-09-04T09:35:52.833Z,34.87
2018-09-04T09:38:22.405Z,35.92
2018-09-04T09:40:52.532Z,36.68
2018-09-04T09:43:21.568Z,36.48
2018-09-04T09:45:50.941Z,36.42
2018-09-04T09:48:20.036Z,37.06
2018-09-04T09:50:50.175Z,34.90
2018-09-04T09:53:19.487Z,35.28
2018-09-04T09:55:48.533Z,35.60
2018-09-04T09:58:17.743Z,35.61
2018-09-04T10:00:52.846Z,34.70
2018-09-04T10:03:27.196Z,30.54
2018-09-04T10:05:56.313Z,30.60
2018-09-04T10:08:25.405Z,29.67
2018-09-04T10:10:54.644Z,31.53
2018-09-04T10:13:23.707Z,31.65
2018-09-04T10:15:53.508Z,31.01
2018-09-04T10:18:22.992Z,31.57
2018-09-04T10:20:52.126Z,29.34
2018-09-04T10:23:21.241Z,28.39
2018-09-04T10:25:50.589Z,28.58
2018-09-04T10:28:21.020Z,31.22
2018-09-04T10:30:50.151Z,32.89
2018-09-04T10:33:19.315Z,32.21
2018-09-04T10:35:48.777Z,32.09
2018-09-04T10:38:17.812Z,32.44
2018-09-04T10:40:47.836Z,32.73
2018-09-04T10:43:17.172Z,32.15
2018-09-04T10:45:51.652Z,32.41
2018-09-04T10:48:24.525Z,32.89
2018-09-04T10:50:56.853Z,34.25
2018-09-04T10:53:26.073Z,35.13
2018-09-04T10:55:55.399Z,35.20
2018-09-04T10:58:24.653Z,34.45
2018-09-04T11:00:53.836Z,34.90
2018-09-04T11:03:23.212Z,35.44
2018-09-04T11:05:52.570Z,33.31
2018-09-04T11:08:22.403Z,32.53
2018-09-04T11:10:52.888Z,31.01
2018-09-04T11:13:22.084Z,30.38
2018-09-04T11:15:54.669Z,29.99
2018-09-04T11:18:24.319Z,30.49
2018-09-04T11:20:53.577Z,31.73
2018-09-04T11:23:22.788Z,33.18
2018-09-04T11:25:52.834Z,32.45
2018-09-04T11:28:22.298Z,31.67
2018-09-04T11:30:51.596Z,30.71
2018-09-04T11:33:20.840Z,28.42
2018-09-04T11:35:51.596Z,28.87
2018-09-04T11:38:20.712Z,29.10
2018-09-04T11:40:50.347Z,28.96
2018-09-04T11:43:19.721Z,29.28
2018-09-04T11:45:49.807Z,28.05
2018-09-04T11:48:19.033Z,29.36
2018-09-04T11:50:48.157Z,28.67
2018-09-04T11:53:17.281Z,27.85
2018-09-04T11:55:47.540Z,28.28
2018-09-04T11:58:16.760Z,30.97
2018-09-04T12:00:48.768Z,32.42
2018-09-04T12:03:18.014Z,32.64
2018-09-04T12:05:47.366Z,33.25
2018-09-04T12:08:16.368Z,33.79
2018-09-04T12:10:46.396Z,35.93
2018-09-04T12:13:21.050Z,35.76
2018-09-04T12:15:50.615Z,34.55
2018-09-04T12:18:19.844Z,32.48
2018-09-04T12:20:51.058Z,29.69
2018-09-04T12:23:21.028Z,29.59
2018-09-04T12:25:51.609Z,29.20
2018-09-04T12:28:21.060Z,28.34
2018-09-04T12:30:51.172Z,29.19
2018-09-04T12:33:20.336Z,29.18
2018-09-04T12:35:49.648Z,29.03
2018-09-04T12:38:21.036Z,29.28
2018-09-04T12:40:51.033Z,30.05
2018-09-04T12:43:20.503Z,30.95
2018-09-04T12:45:49.612Z,31.92
2018-09-04T12:48:24.568Z,31.08
2018-09-04T12:50:54.864Z,31.45
2018-09-04T12:53:24.988Z,31.61
2018-09-04T12:55:54.192Z,31.22
2018-09-04T12:58:23.284Z,31.68
2018-09-04T13:00:53.712Z,32.32
2018-09-04T13:03:24.839Z,29.90
2018-09-04T13:05:54.285Z,30.81
2018-09-04T13:08:25.125Z,31.40
2018-09-04T13:10:54.289Z,31.15
2018-09-04T13:13:23.404Z,31.06
2018-09-04T13:15:54.200Z,31.13
2018-09-04T13:18:23.821Z,30.46
2018-09-04T13:20:53.104Z,29.81
2018-09-04T13:23:22.328Z,28.64
2018-09-04T13:25:53.141Z,30.28
2018-09-04T13:28:22.401Z,31.29
2018-09-04T13:30:51.500Z,29.97
2018-09-04T13:33:21.577Z,28.37
2018-09-04T13:35:50.693Z,28.81
2018-09-04T13:38:19.908Z,28.22
2018-09-04T13:40:52.368Z,28.80
2018-09-04T13:43:21.680Z,29.78
2018-09-04T13:45:50.841Z,31.33
2018-09-04T13:48:24.056Z,31.82
2018-09-04T13:50:57.302Z,32.05
2018-09-04T13:53:27.259Z,31.37
2018-09-04T13:55:56.822Z,32.14
2018-09-04T13:58:25.979Z,33.15
2018-09-04T14:00:55.196Z,33.02
2018-09-04T14:03:24.536Z,33.17
2018-09-04T14:05:53.832Z,32.80
2018-09-04T14:08:23.120Z,33.07
2018-09-04T14:10:52.420Z,33.71
2018-09-04T14:13:21.472Z,32.99
2018-09-04T14:15:53.104Z,32.89
2018-09-04T14:18:22.292Z,32.45
2018-09-04T14:20:51.492Z,33.37
2018-09-04T14:23:20.776Z,33.49
2018-09-04T14:25:51.328Z,33.25
2018-09-04T14:28:40.973Z,32.96
2018-09-04T14:30:49.664Z,32.26
2018-09-04T14:33:18.796Z,31.31
2018-09-04T14:35:48.020Z,30.45
2018-09-04T14:38:17.100Z,30.05
2018-09-04T14:40:46.432Z,30.26
2018-09-04T14:43:15.637Z,29.08
2018-09-04T14:45:44.804Z,29.46
2018-09-04T14:48:14.182Z,29.11
2018-09-04T14:50:43.266Z,28.68
2018-09-04T14:53:12.398Z,29.00
2018-09-04T14:55:41.612Z,27.80
2018-09-04T14:58:10.685Z,27.79
2018-09-04T15:00:40.804Z,27.54
2018-09-04T15:03:10.286Z,26.84
2018-09-04T15:05:39.380Z,26.26
2018-09-04T15:08:08.500Z,26.42
2018-09-04T15:10:37.874Z,26.57
2018-09-04T15:13:07.088Z,26.36
2018-09-04T15:15:36.167Z,26.54
2018-09-04T15:18:05.736Z,26.53
2018-09-04T15:20:34.833Z,27.06
2018-09-04T15:23:04.641Z,27.19
2018-09-04T15:25:33.872Z,26.99
2018-09-04T15:28:03.639Z,26.76
2018-09-04T15:30:33.039Z,26.47
